Terminal Aerodrome Forecast
Issued by NWS

Home | Current Version | Previous Version | Text Only | Print | Product List | Glossary On
Versions: 1 2 3 4 5 6 7 8 9 10 11 12 13 14 15 16 17 18 19 20
000
FTUS46 KEKA 261449 CCA
TAFCEC
TAF COR
KCEC 261449Z 2614/2712 36004KT 1/2SM FG OVC002
      TEMPO 2614/2615 3SM BR SCT002
     FM261500 35007KT 6SM BR FEW002
     FM261800 34012G20KT P6SM SKC
     FM270400 18007KT P6SM SKC=

USA.gov is the U.S. government's official web portal to all federal, state and local government web resources and services.